createdAt,value
2017-03-24T00:00:31.272Z,1026.77
2017-03-24T00:01:40.485Z,1026.74
2017-03-24T00:02:50.126Z,1026.79
2017-03-24T00:04:00.319Z,1026.81
2017-03-24T00:05:09.542Z,1026.84
2017-03-24T00:06:19.079Z,1026.89
2017-03-24T00:07:28.289Z,1026.84
2017-03-24T00:08:37.184Z,1026.84
2017-03-24T00:09:46.457Z,1026.87
2017-03-24T00:10:55.996Z,1026.87
2017-03-24T00:12:04.880Z,1026.92
2017-03-24T00:13:14.420Z,1026.96
2017-03-24T00:14:24.433Z,1027
2017-03-24T00:15:34.295Z,1026.99
2017-03-24T00:16:43.178Z,1027.01
2017-03-24T00:17:52.392Z,1027.07
2017-03-24T00:19:02.254Z,1027.06
2017-03-24T00:20:12.191Z,1027.09
2017-03-24T00:21:21.089Z,1027.1
2017-03-24T00:22:29.977Z,1027.15
2017-03-24T00:23:39.518Z,1027.12
2017-03-24T00:24:49.057Z,1027.17
2017-03-24T00:25:58.969Z,1027.2
2017-03-24T00:27:07.855Z,1027.18
2017-03-24T00:28:16.751Z,1027.23
2017-03-24T00:29:26.626Z,1027.23
2017-03-24T00:30:36.166Z,1027.25
2017-03-24T00:31:45.526Z,1027.26
2017-03-24T00:32:54.733Z,1027.29
2017-03-24T00:34:04.280Z,1027.34
2017-03-24T00:35:13.822Z,1027.3
2017-03-24T00:36:23.034Z,1027.36
2017-03-24T00:37:32.731Z,1027.34
2017-03-24T00:38:41.943Z,1027.38
2017-03-24T00:39:51.486Z,1027.37
2017-03-24T00:41:00.373Z,1027.38
2017-03-24T00:42:09.254Z,1027.44
2017-03-24T00:43:18.466Z,1027.42
2017-03-24T00:44:28.661Z,1027.43
2017-03-24T00:45:38.196Z,1027.49
2017-03-24T00:46:47.084Z,1027.45
2017-03-24T00:47:55.978Z,1027.49
2017-03-24T00:49:06.231Z,1027.51
2017-03-24T00:50:15.778Z,1027.51
2017-03-24T00:51:24.986Z,1027.53
2017-03-24T00:52:33.883Z,1027.55
2017-03-24T00:53:43.422Z,1027.56
2017-03-24T00:54:53.639Z,1027.53
2017-03-24T00:56:03.193Z,1027.6
2017-03-24T00:57:12.082Z,1027.55
2017-03-24T00:58:21.303Z,1027.6
2017-03-24T00:59:31.164Z,1027.62
2017-03-24T01:00:40.755Z,1027.62
2017-03-24T01:01:49.638Z,1027.62
2017-03-24T01:02:58.844Z,1027.67
2017-03-24T01:04:08.395Z,1027.69
2017-03-24T01:05:18.264Z,1027.69
2017-03-24T01:06:27.342Z,1027.73
2017-03-24T01:07:36.879Z,1027.75
2017-03-24T01:08:46.748Z,1027.75
2017-03-24T01:09:56.620Z,1027.77
2017-03-24T01:11:06.165Z,1027.81
2017-03-24T01:12:15.527Z,1027.83
2017-03-24T01:13:25.065Z,1027.82
2017-03-24T01:14:34.931Z,1027.83
2017-03-24T01:15:44.141Z,1027.76
2017-03-24T01:16:53.682Z,1027.8
2017-03-24T01:18:03.094Z,1027.83
2017-03-24T01:19:12.959Z,1027.83
2017-03-24T01:20:22.501Z,1027.85
2017-03-24T01:21:31.712Z,1027.9
2017-03-24T01:22:40.606Z,1027.89
2017-03-24T01:23:50.117Z,1027.93
2017-03-24T01:24:59.333Z,1027.94
2017-03-24T01:26:08.549Z,1027.94
2017-03-24T01:27:17.432Z,1027.95
2017-03-24T01:28:26.653Z,1027.95
2017-03-24T01:29:35.917Z,1027.97
2017-03-24T01:30:45.453Z,1027.99
2017-03-24T01:31:55.309Z,1027.99
2017-03-24T01:33:04.853Z,1027.98
2017-03-24T01:34:14.097Z,1027.95
2017-03-24T01:35:23.894Z,1027.93
2017-03-24T01:36:33.113Z,1027.94
2017-03-24T01:37:42.005Z,1027.98
2017-03-24T01:38:52.193Z,1027.93
2017-03-24T01:40:02.058Z,1027.94
2017-03-24T01:41:11.104Z,1027.97
2017-03-24T01:42:20.320Z,1027.96
2017-03-24T01:43:30.511Z,1027.98
2017-03-24T01:44:40.382Z,1028.01
2017-03-24T01:45:49.922Z,1027.98
2017-03-24T01:46:59.610Z,1027.93
2017-03-24T01:48:08.498Z,1027.98
2017-03-24T01:49:17.715Z,1027.98
2017-03-24T01:50:27.267Z,1027.95
2017-03-24T01:51:36.484Z,1027.98
2017-03-24T01:52:45.848Z,1027.98
2017-03-24T01:53:56.042Z,1028.02
2017-03-24T01:55:05.907Z,1027.99
2017-03-24T01:56:14.796Z,1028.04
2017-03-24T01:57:24.010Z,1028.06
2017-03-24T01:58:33.648Z,1028.06
2017-03-24T01:59:43.518Z,1028.05
2017-03-24T02:00:53.058Z,1028.06
2017-03-24T02:02:02.924Z,1028.05
2017-03-24T02:03:12.196Z,1028.09
2017-03-24T02:04:21.886Z,1028.12
2017-03-24T02:05:31.804Z,1028.15
2017-03-24T02:06:41.014Z,1028.12
2017-03-24T02:07:49.900Z,1028.07
2017-03-24T02:08:59.767Z,1028.09
2017-03-24T02:10:09.462Z,1028.1
2017-03-24T02:11:19.009Z,1028.09
2017-03-24T02:12:27.893Z,1028.04
2017-03-24T02:13:37.433Z,1028.09
2017-03-24T02:14:46.978Z,1028.1
2017-03-24T02:15:56.892Z,1028.08
2017-03-24T02:17:06.427Z,1028.08
2017-03-24T02:18:15.644Z,1028.08
2017-03-24T02:19:25.191Z,1028.1
2017-03-24T02:20:35.060Z,1028.13
2017-03-24T02:21:44.100Z,1028.13
2017-03-24T02:22:52.991Z,1028.1
2017-03-24T02:24:02.865Z,1028.05
2017-03-24T02:25:12.728Z,1028.07
2017-03-24T02:26:21.976Z,1028.05
2017-03-24T02:27:31.340Z,1028.04
2017-03-24T02:28:40.885Z,1028.09
2017-03-24T02:29:50.099Z,1028.08
2017-03-24T02:31:00.292Z,1028.1
2017-03-24T02:32:09.527Z,1028.14
2017-03-24T02:33:18.787Z,1028.13
2017-03-24T02:34:28.975Z,1028.17
2017-03-24T02:35:38.513Z,1028.19
2017-03-24T02:36:47.399Z,1028.25
2017-03-24T02:37:56.608Z,1028.23
2017-03-24T02:39:05.874Z,1028.26
2017-03-24T02:40:16.065Z,1028.28
2017-03-24T02:41:24.948Z,1028.23
2017-03-24T02:42:34.488Z,1028.23
2017-03-24T02:43:44.033Z,1028.17
2017-03-24T02:44:54.045Z,1028.18
2017-03-24T02:46:03.911Z,1028.21
2017-03-24T02:47:12.802Z,1028.27
2017-03-24T02:48:22.341Z,1028.24
2017-03-24T02:49:32.211Z,1028.26
2017-03-24T02:50:41.402Z,1028.29
2017-03-24T02:51:50.285Z,1028.28
2017-03-24T02:52:59.492Z,1028.28
2017-03-24T02:54:08.702Z,1028.32
2017-03-24T02:55:18.574Z,1028.29
2017-03-24T02:56:27.546Z,1028.32
2017-03-24T02:57:36.763Z,1028.3
2017-03-24T02:58:46.636Z,1028.3
2017-03-24T02:59:56.828Z,1028.32
2017-03-24T03:01:06.042Z,1028.31
2017-03-24T03:02:15.500Z,1028.3
2017-03-24T03:03:24.394Z,1028.35
2017-03-24T03:04:34.256Z,1028.33
2017-03-24T03:05:43.464Z,1028.31
2017-03-24T03:06:52.995Z,1028.33
2017-03-24T03:08:02.516Z,1028.33
2017-03-24T03:09:11.729Z,1028.32
2017-03-24T03:10:21.592Z,1028.29
2017-03-24T03:11:30.804Z,1028.32
2017-03-24T03:12:40.341Z,1028.33
2017-03-24T03:13:50.678Z,1028.29
2017-03-24T03:14:59.893Z,1028.3
2017-03-24T03:16:09.102Z,1028.31
2017-03-24T03:17:17.991Z,1028.3
2017-03-24T03:18:27.200Z,1028.33
2017-03-24T03:19:37.214Z,1028.37
2017-03-24T03:20:46.102Z,1028.32
2017-03-24T03:21:54.980Z,1028.33
2017-03-24T03:23:04.189Z,1028.38
2017-03-24T03:24:14.054Z,1028.36
2017-03-24T03:25:23.741Z,1028.38
2017-03-24T03:26:33.278Z,1028.38
2017-03-24T03:27:42.490Z,1028.4
2017-03-24T03:28:52.040Z,1028.39
2017-03-24T03:30:02.238Z,1028.44
2017-03-24T03:31:11.748Z,1028.5
2017-03-24T03:32:21.288Z,1028.53
2017-03-24T03:33:30.829Z,1028.54
2017-03-24T03:34:41.016Z,1028.57
2017-03-24T03:35:50.230Z,1028.6
2017-03-24T03:36:59.816Z,1028.61
2017-03-24T03:38:09.029Z,1028.57
2017-03-24T03:39:18.569Z,1028.58
2017-03-24T03:40:28.429Z,1028.6
2017-03-24T03:41:38.297Z,1028.62
2017-03-24T03:42:47.883Z,1028.64
2017-03-24T03:43:57.747Z,1028.63
2017-03-24T03:45:07.938Z,1028.67
2017-03-24T03:46:16.818Z,1028.7
2017-03-24T03:47:25.699Z,1028.71
2017-03-24T03:48:35.435Z,1028.68
2017-03-24T03:49:45.297Z,1028.72
2017-03-24T03:50:55.493Z,1028.71
2017-03-24T03:52:04.698Z,1028.72
2017-03-24T03:53:14.886Z,1028.74
2017-03-24T03:54:24.151Z,1028.77
2017-03-24T03:55:33.693Z,1028.78
2017-03-24T03:56:42.582Z,1028.77
2017-03-24T03:57:51.472Z,1028.81
2017-03-24T03:59:00.684Z,1028.82
2017-03-24T04:00:10.275Z,1028.86
2017-03-24T04:01:19.160Z,1028.88
2017-03-24T04:02:28.698Z,1028.91
2017-03-24T04:03:37.909Z,1028.94
2017-03-24T04:04:47.449Z,1028.99
2017-03-24T04:05:57.686Z,1028.99
2017-03-24T04:07:06.572Z,1029.03
2017-03-24T04:08:15.456Z,1029.05
2017-03-24T04:09:24.997Z,1029.11
2017-03-24T04:10:34.860Z,1029.1
2017-03-24T04:11:43.947Z,1029.14
2017-03-24T04:12:53.160Z,1029.15
2017-03-24T04:14:02.697Z,1029.19
2017-03-24T04:15:12.561Z,1029.19
2017-03-24T04:16:22.421Z,1029.21
2017-03-24T04:17:32.107Z,1029.21
2017-03-24T04:18:41.968Z,1029.23
2017-03-24T04:19:51.508Z,1029.2
2017-03-24T04:21:01.695Z,1029.29
2017-03-24T04:22:11.232Z,1029.32
2017-03-24T04:23:21.243Z,1029.4
2017-03-24T04:24:31.107Z,1029.45
2017-03-24T04:25:39.987Z,1029.44
2017-03-24T04:26:49.524Z,1029.44
2017-03-24T04:27:58.409Z,1029.47
2017-03-24T04:29:08.516Z,1029.51
2017-03-24T04:30:18.053Z,1029.53
2017-03-24T04:31:27.256Z,1029.53
2017-03-24T04:32:36.141Z,1029.52
2017-03-24T04:33:46.330Z,1029.63
2017-03-24T04:34:56.346Z,1029.6
2017-03-24T04:36:05.557Z,1029.63
2017-03-24T04:37:14.440Z,1029.63
2017-03-24T04:38:24.301Z,1029.64
2017-03-24T04:39:34.182Z,1029.69
2017-03-24T04:40:43.066Z,1029.74
2017-03-24T04:41:52.601Z,1029.74
2017-03-24T04:43:02.465Z,1029.78
2017-03-24T04:44:11.685Z,1029.79
2017-03-24T04:45:21.874Z,1029.74
2017-03-24T04:46:30.910Z,1029.75
2017-03-24T04:47:40.451Z,1029.7
2017-03-24T04:48:50.317Z,1029.76
2017-03-24T04:49:59.532Z,1029.73
2017-03-24T04:51:09.111Z,1029.78
2017-03-24T04:52:18.798Z,1029.8
2017-03-24T04:53:28.007Z,1029.82
2017-03-24T04:54:36.886Z,1029.87
2017-03-24T04:55:46.093Z,1029.88
2017-03-24T04:56:55.300Z,1029.93
2017-03-24T04:58:04.525Z,1029.94
2017-03-24T04:59:14.390Z,1029.99
2017-03-24T05:00:23.933Z,1030.05
2017-03-24T05:01:33.142Z,1030.09
2017-03-24T05:02:42.037Z,1030.12
2017-03-24T05:03:51.675Z,1030.08
2017-03-24T05:05:01.905Z,1030.13
2017-03-24T05:06:11.449Z,1030.11
2017-03-24T05:07:20.664Z,1030.16
2017-03-24T05:08:29.871Z,1030.07
2017-03-24T05:09:39.890Z,1030.13
2017-03-24T05:10:49.102Z,1030.19
2017-03-24T05:11:58.676Z,1030.19
2017-03-24T05:13:08.218Z,1030.2
2017-03-24T05:14:17.762Z,1030.23
2017-03-24T05:15:27.453Z,1030.25
2017-03-24T05:16:36.349Z,1030.32
2017-03-24T05:17:45.886Z,1030.25
2017-03-24T05:18:54.783Z,1030.26
2017-03-24T05:20:04.045Z,1030.26
2017-03-24T05:21:13.405Z,1030.26
2017-03-24T05:22:22.285Z,1030.24
2017-03-24T05:23:31.491Z,1030.28
2017-03-24T05:24:41.352Z,1030.26
2017-03-24T05:25:50.567Z,1030.3
2017-03-24T05:26:59.876Z,1030.32
2017-03-24T05:28:08.760Z,1030.31
2017-03-24T05:29:17.975Z,1030.28
2017-03-24T05:30:28.168Z,1030.29
2017-03-24T05:31:37.050Z,1030.28
2017-03-24T05:32:46.306Z,1030.3
2017-03-24T05:33:56.502Z,1030.33
2017-03-24T05:35:06.362Z,1030.33
2017-03-24T05:36:15.577Z,1030.33
2017-03-24T05:37:24.465Z,1030.35
2017-03-24T05:38:34.813Z,1030.39
2017-03-24T05:39:44.356Z,1030.44
2017-03-24T05:40:54.221Z,1030.43
2017-03-24T05:42:03.109Z,1030.46
2017-03-24T05:43:11.999Z,1030.55
2017-03-24T05:44:21.692Z,1030.58
2017-03-24T05:45:30.922Z,1030.6
2017-03-24T05:46:40.145Z,1030.64
2017-03-24T05:47:49.031Z,1030.63
2017-03-24T05:48:58.574Z,1030.64
2017-03-24T05:50:07.523Z,1030.63
2017-03-24T05:51:17.061Z,1030.65
2017-03-24T05:52:26.276Z,1030.67
2017-03-24T05:53:35.181Z,1030.67
2017-03-24T05:54:44.725Z,1030.71
2017-03-24T05:55:54.366Z,1030.72
2017-03-24T05:57:03.582Z,1030.78
2017-03-24T05:58:13.118Z,1030.8
2017-03-24T05:59:22.333Z,1030.81
2017-03-24T06:00:31.870Z,1030.82
2017-03-24T06:01:41.055Z,1030.83
2017-03-24T06:02:49.942Z,1030.84
2017-03-24T06:04:00.143Z,1030.88
2017-03-24T06:05:10.009Z,1030.89
2017-03-24T06:06:19.541Z,1030.91
2017-03-24T06:07:28.481Z,1030.93
2017-03-24T06:08:37.708Z,1030.88
2017-03-24T06:09:47.583Z,1030.93
2017-03-24T06:10:57.126Z,1030.91
2017-03-24T06:12:06.995Z,1030.93
2017-03-24T06:13:16.538Z,1030.91
2017-03-24T06:14:26.084Z,1030.95
2017-03-24T06:15:35.948Z,1030.9
2017-03-24T06:16:44.849Z,1030.89
2017-03-24T06:17:53.733Z,1030.9
2017-03-24T06:19:04.179Z,1030.92
2017-03-24T06:20:13.737Z,1030.94
2017-03-24T06:21:23.270Z,1030.95
2017-03-24T06:22:32.803Z,1031
2017-03-24T06:23:42.671Z,1031.02
2017-03-24T06:24:52.592Z,1031.03
2017-03-24T06:26:02.466Z,1031.04
2017-03-24T06:27:11.677Z,1031.05
2017-03-24T06:28:20.892Z,1031.11
2017-03-24T06:29:30.485Z,1031.05
2017-03-24T06:30:40.097Z,1031.07
2017-03-24T06:31:48.979Z,1031
2017-03-24T06:32:57.864Z,1031
2017-03-24T06:34:07.403Z,1030.97
2017-03-24T06:35:16.946Z,1031
2017-03-24T06:36:26.206Z,1031.02
2017-03-24T06:37:35.421Z,1031.01
2017-03-24T06:38:45.293Z,1031.01
2017-03-24T06:39:54.836Z,1030.98
2017-03-24T06:41:04.096Z,1030.95
2017-03-24T06:42:13.079Z,1030.99
2017-03-24T06:43:22.618Z,1030.94
2017-03-24T06:44:32.808Z,1030.98
2017-03-24T06:45:42.354Z,1030.95
2017-03-24T06:46:51.576Z,1031
2017-03-24T06:48:00.833Z,1030.98
2017-03-24T06:49:10.373Z,1031
2017-03-24T06:50:20.239Z,1031.02
2017-03-24T06:51:29.448Z,1030.99
2017-03-24T06:52:38.991Z,1030.95
2017-03-24T06:53:48.541Z,1030.93
2017-03-24T06:54:58.411Z,1030.93
2017-03-24T06:56:07.628Z,1030.92
2017-03-24T06:57:16.843Z,1030.88
2017-03-24T06:58:26.056Z,1030.97
2017-03-24T06:59:35.745Z,1030.93
2017-03-24T07:00:44.949Z,1030.91
2017-03-24T07:01:53.833Z,1030.94
2017-03-24T07:03:03.376Z,1031
2017-03-24T07:04:13.596Z,1030.99
2017-03-24T07:05:23.144Z,1031.01
2017-03-24T07:06:32.351Z,1031
2017-03-24T07:07:41.236Z,1031.03
2017-03-24T07:08:50.777Z,1030.98
2017-03-24T07:10:00.644Z,1031.03
2017-03-24T07:11:10.328Z,1031.05
2017-03-24T07:12:19.541Z,1031.07
2017-03-24T07:13:28.755Z,1031.07
2017-03-24T07:14:38.301Z,1031.04
2017-03-24T07:15:47.839Z,1031.05
2017-03-24T07:16:57.299Z,1031.04
2017-03-24T07:18:06.509Z,1031.04
2017-03-24T07:19:16.047Z,1031.1
2017-03-24T07:20:24.937Z,1031.11
2017-03-24T07:21:34.145Z,1031.13
2017-03-24T07:22:43.609Z,1031.13
2017-03-24T07:23:53.472Z,1031.15
2017-03-24T07:25:02.688Z,1031.12
2017-03-24T07:26:11.909Z,1031.14
2017-03-24T07:27:20.846Z,1031.19
2017-03-24T07:28:30.159Z,1031.21
2017-03-24T07:29:39.704Z,1031.21
2017-03-24T07:30:48.596Z,1031.24
2017-03-24T07:31:57.813Z,1031.23
2017-03-24T07:33:07.676Z,1031.25
2017-03-24T07:34:16.913Z,1031.25
2017-03-24T07:35:26.127Z,1031.3
2017-03-24T07:36:35.012Z,1031.27
2017-03-24T07:37:43.901Z,1031.27
2017-03-24T07:38:53.450Z,1031.26
2017-03-24T07:40:03.163Z,1031.25
2017-03-24T07:41:12.049Z,1031.23
2017-03-24T07:42:21.266Z,1031.24
2017-03-24T07:43:30.806Z,1031.33
2017-03-24T07:44:40.031Z,1031.28
2017-03-24T07:45:49.824Z,1031.34
2017-03-24T07:46:59.710Z,1031.37
2017-03-24T07:48:08.920Z,1031.35
2017-03-24T07:49:18.462Z,1031.36
2017-03-24T07:50:28.330Z,1031.39
2017-03-24T07:51:37.841Z,1031.42
2017-03-24T07:52:46.730Z,1031.46
2017-03-24T07:53:56.273Z,1031.47
2017-03-24T07:55:05.486Z,1031.48
2017-03-24T07:56:15.026Z,1031.5
2017-03-24T07:57:24.221Z,1031.53
2017-03-24T07:58:33.429Z,1031.52
2017-03-24T07:59:42.314Z,1031.52
2017-03-24T08:00:51.200Z,1031.54
2017-03-24T08:02:00.419Z,1031.55
2017-03-24T08:03:09.458Z,1031.58
2017-03-24T08:04:18.343Z,1031.54
2017-03-24T08:05:27.552Z,1031.62
2017-03-24T08:06:36.439Z,1031.57
2017-03-24T08:07:45.647Z,1031.57
2017-03-24T08:08:54.541Z,1031.53
2017-03-24T08:10:03.762Z,1031.57
2017-03-24T08:11:12.976Z,1031.59
2017-03-24T08:12:21.860Z,1031.57
2017-03-24T08:13:30.745Z,1031.6
2017-03-24T08:14:39.828Z,1031.62
2017-03-24T08:15:48.747Z,1031.64
2017-03-24T08:16:57.669Z,1031.68
2017-03-24T08:18:06.881Z,1031.68
2017-03-24T08:19:15.766Z,1031.71
2017-03-24T08:20:25.230Z,1031.77
2017-03-24T08:21:34.118Z,1031.77
2017-03-24T08:22:43.003Z,1031.75
2017-03-24T08:23:52.216Z,1031.74
2017-03-24T08:25:01.440Z,1031.72
2017-03-24T08:26:10.681Z,1031.79
2017-03-24T08:27:19.574Z,1031.76
2017-03-24T08:28:28.463Z,1031.76
2017-03-24T08:29:37.352Z,1031.77
2017-03-24T08:30:46.236Z,1031.8
2017-03-24T08:31:55.172Z,1031.77
2017-03-24T08:33:04.058Z,1031.81
2017-03-24T08:34:12.947Z,1031.83
2017-03-24T08:35:21.834Z,1031.88
2017-03-24T08:36:31.047Z,1031.9
2017-03-24T08:37:40.308Z,1031.86
2017-03-24T08:38:49.195Z,1031.89
2017-03-24T08:39:58.080Z,1031.88
2017-03-24T08:41:06.969Z,1031.88
2017-03-24T08:42:15.866Z,1031.87
2017-03-24T08:43:24.750Z,1031.87
2017-03-24T08:44:33.637Z,1031.88
2017-03-24T08:45:42.529Z,1031.91
2017-03-24T08:46:51.415Z,1031.86
2017-03-24T08:48:00.302Z,1031.85
2017-03-24T08:49:09.668Z,1031.81
2017-03-24T08:50:18.567Z,1031.81
2017-03-24T08:51:27.453Z,1031.84
2017-03-24T08:52:36.340Z,1031.88
2017-03-24T08:53:45.267Z,1031.92
2017-03-24T08:54:54.645Z,1031.9
2017-03-24T08:56:03.527Z,1031.91
2017-03-24T08:57:12.414Z,1031.93
2017-03-24T08:58:21.633Z,1031.92
2017-03-24T08:59:30.522Z,1031.91
2017-03-24T09:00:39.462Z,1031.91
2017-03-24T09:01:48.359Z,1031.9
2017-03-24T09:02:57.255Z,1031.89
2017-03-24T09:04:06.462Z,1031.85
2017-03-24T09:05:15.347Z,1031.81
2017-03-24T09:06:24.385Z,1031.83
2017-03-24T09:07:33.273Z,1031.78
2017-03-24T09:08:42.159Z,1031.75
2017-03-24T09:09:51.047Z,1031.76
2017-03-24T09:10:59.942Z,1031.76
2017-03-24T09:12:09.084Z,1031.79
2017-03-24T09:13:17.969Z,1031.77
2017-03-24T09:14:26.856Z,1031.76
2017-03-24T09:15:36.078Z,1031.74
2017-03-24T09:16:44.963Z,1031.74
2017-03-24T09:17:53.906Z,1031.8
2017-03-24T09:19:02.790Z,1031.79
2017-03-24T09:20:11.682Z,1031.8
2017-03-24T09:21:20.895Z,1031.79
2017-03-24T09:22:30.432Z,1031.83
2017-03-24T09:23:39.418Z,1031.83
2017-03-24T09:24:48.303Z,1031.86
2017-03-24T09:25:57.190Z,1031.87
2017-03-24T09:27:07.056Z,1031.91
2017-03-24T09:28:15.989Z,1031.91
2017-03-24T09:29:24.977Z,1031.89
2017-03-24T09:30:34.186Z,1031.92
2017-03-24T09:31:43.405Z,1031.88
2017-03-24T09:32:52.295Z,1031.97
2017-03-24T09:34:01.205Z,1031.9
2017-03-24T09:35:10.242Z,1031.93
2017-03-24T09:36:19.127Z,1031.95
2017-03-24T09:37:28.023Z,1031.96
2017-03-24T09:38:36.913Z,1031.97
2017-03-24T09:39:46.128Z,1032
2017-03-24T09:40:55.113Z,1031.98
2017-03-24T09:42:04.003Z,1032
2017-03-24T09:43:12.889Z,1032.1
2017-03-24T09:44:21.784Z,1032.13
2017-03-24T09:45:30.995Z,1032.19
2017-03-24T09:46:39.981Z,1032.16
2017-03-24T09:47:49.191Z,1032.18
2017-03-24T09:48:58.400Z,1032.25
2017-03-24T09:50:07.285Z,1032.23
2017-03-24T09:51:16.498Z,1032.25
2017-03-24T09:52:25.638Z,1032.32
2017-03-24T09:53:34.526Z,1032.29
2017-03-24T09:54:43.416Z,1032.36
2017-03-24T09:55:52.305Z,1032.41
2017-03-24T09:57:01.193Z,1032.45
2017-03-24T09:58:10.478Z,1032.48
2017-03-24T09:59:19.370Z,1032.48
2017-03-24T10:00:28.257Z,1032.53
2017-03-24T10:01:37.147Z,1032.53
2017-03-24T10:02:46.365Z,1032.59
2017-03-24T10:03:55.407Z,1032.58
2017-03-24T10:05:04.296Z,1032.59
2017-03-24T10:06:13.511Z,1032.59
2017-03-24T10:07:22.724Z,1032.57
2017-03-24T10:08:31.935Z,1032.6
2017-03-24T10:09:40.975Z,1032.63
2017-03-24T10:10:50.190Z,1032.61
2017-03-24T10:11:59.077Z,1032.59
2017-03-24T10:13:07.967Z,1032.55
2017-03-24T10:14:16.894Z,1032.57
2017-03-24T10:15:26.037Z,1032.55
2017-03-24T10:16:34.965Z,1032.6
2017-03-24T10:17:43.871Z,1032.57
2017-03-24T10:18:52.765Z,1032.54
2017-03-24T10:20:01.664Z,1032.49
2017-03-24T10:21:11.610Z,1032.46
2017-03-24T10:22:20.548Z,1032.47
2017-03-24T10:23:29.776Z,1032.45
2017-03-24T10:24:38.664Z,1032.47
2017-03-24T10:25:47.561Z,1032.51
2017-03-24T10:26:56.553Z,1032.52
2017-03-24T10:28:05.446Z,1032.57
2017-03-24T10:29:14.662Z,1032.51
2017-03-24T10:30:23.549Z,1032.53
2017-03-24T10:31:32.814Z,1032.54
2017-03-24T10:32:41.853Z,1032.55
2017-03-24T10:33:51.074Z,1032.49
2017-03-24T10:34:59.961Z,1032.47
2017-03-24T10:36:09.502Z,1032.51
2017-03-24T10:37:18.719Z,1032.47
2017-03-24T10:38:28.312Z,1032.53
2017-03-24T10:39:37.202Z,1032.54
2017-03-24T10:40:46.417Z,1032.5
2017-03-24T10:41:55.628Z,1032.51
2017-03-24T10:43:04.517Z,1032.54
2017-03-24T10:44:13.881Z,1032.58
2017-03-24T10:45:22.773Z,1032.55
2017-03-24T10:46:31.994Z,1032.57
2017-03-24T10:47:40.890Z,1032.53
2017-03-24T10:48:49.780Z,1032.56
2017-03-24T10:49:58.820Z,1032.58
2017-03-24T10:51:07.708Z,1032.54
2017-03-24T10:52:16.921Z,1032.6
2017-03-24T10:53:25.814Z,1032.58
2017-03-24T10:54:34.702Z,1032.6
2017-03-24T10:55:43.651Z,1032.6
2017-03-24T10:56:52.546Z,1032.62
2017-03-24T10:58:01.437Z,1032.59
2017-03-24T10:59:10.335Z,1032.63
2017-03-24T11:00:19.229Z,1032.68
2017-03-24T11:01:28.172Z,1032.65
2017-03-24T11:02:37.066Z,1032.62
2017-03-24T11:03:45.961Z,1032.68
2017-03-24T11:04:54.851Z,1032.67
2017-03-24T11:06:03.747Z,1032.69
2017-03-24T11:07:13.367Z,1032.76
2017-03-24T11:08:22.253Z,1032.72
2017-03-24T11:09:31.158Z,1032.76
2017-03-24T11:10:40.375Z,1032.74
2017-03-24T11:11:49.265Z,1032.69
2017-03-24T11:12:58.305Z,1032.69
2017-03-24T11:14:07.195Z,1032.68
2017-03-24T11:15:16.081Z,1032.65
2017-03-24T11:16:25.318Z,1032.64
2017-03-24T11:17:34.532Z,1032.7
2017-03-24T11:18:43.470Z,1032.7
2017-03-24T11:19:52.361Z,1032.62
2017-03-24T11:21:01.250Z,1032.63
2017-03-24T11:22:10.140Z,1032.59
2017-03-24T11:23:19.032Z,1032.56
2017-03-24T11:24:28.181Z,1032.55
2017-03-24T11:25:37.402Z,1032.56
2017-03-24T11:26:46.291Z,1032.56
2017-03-24T11:27:55.207Z,1032.54
2017-03-24T11:29:04.098Z,1032.56
2017-03-24T11:30:13.044Z,1032.58
2017-03-24T11:31:21.931Z,1032.55
2017-03-24T11:32:31.153Z,1032.58
2017-03-24T11:33:40.040Z,1032.6
2017-03-24T11:34:48.926Z,1032.55
2017-03-24T11:35:57.867Z,1032.56
2017-03-24T11:37:06.756Z,1032.56
2017-03-24T11:38:15.647Z,1032.55
2017-03-24T11:39:24.868Z,1032.53
2017-03-24T11:40:33.752Z,1032.49
2017-03-24T11:41:43.014Z,1032.53
2017-03-24T11:42:51.900Z,1032.51
2017-03-24T11:44:00.788Z,1032.52
2017-03-24T11:45:09.677Z,1032.49
2017-03-24T11:46:18.571Z,1032.61
2017-03-24T11:47:27.514Z,1032.61
2017-03-24T11:48:36.728Z,1032.6
2017-03-24T11:49:45.626Z,1032.59
2017-03-24T11:50:54.522Z,1032.67
2017-03-24T11:52:03.421Z,1032.63
2017-03-24T11:53:12.361Z,1032.62
2017-03-24T11:54:21.255Z,1032.57
2017-03-24T11:55:30.151Z,1032.56
2017-03-24T11:56:39.041Z,1032.62
2017-03-24T11:57:47.931Z,1032.55
2017-03-24T11:58:56.827Z,1032.58
2017-03-24T12:00:05.722Z,1032.59
2017-03-24T12:01:15.269Z,1032.64
2017-03-24T12:02:24.486Z,1032.65
2017-03-24T12:03:33.380Z,1032.65
2017-03-24T12:04:42.425Z,1032.73
2017-03-24T12:05:51.357Z,1032.67
2017-03-24T12:07:00.288Z,1032.69
2017-03-24T12:08:09.187Z,1032.72
2017-03-24T12:09:18.083Z,1032.72
2017-03-24T12:10:27.030Z,1032.77
2017-03-24T12:11:35.926Z,1032.8
2017-03-24T12:12:44.827Z,1032.82
2017-03-24T12:13:53.721Z,1032.78
2017-03-24T12:15:02.616Z,1032.77
2017-03-24T12:16:11.564Z,1032.74
2017-03-24T12:17:20.458Z,1032.82
2017-03-24T12:18:29.357Z,1032.77
2017-03-24T12:19:38.262Z,1032.75
2017-03-24T12:20:47.162Z,1032.79
2017-03-24T12:21:56.207Z,1032.8
2017-03-24T12:23:05.106Z,1032.8
2017-03-24T12:24:14.013Z,1032.8
2017-03-24T12:25:23.243Z,1032.87
2017-03-24T12:26:32.150Z,1032.91
2017-03-24T12:27:41.574Z,1032.93
2017-03-24T12:28:50.509Z,1032.89
2017-03-24T12:29:59.412Z,1032.9
2017-03-24T12:31:08.646Z,1032.87
2017-03-24T12:32:17.550Z,1032.92
2017-03-24T12:33:26.849Z,1032.93
2017-03-24T12:34:35.751Z,1032.91
2017-03-24T12:35:44.654Z,1032.91
2017-03-24T12:36:53.558Z,1032.87
2017-03-24T12:38:02.462Z,1032.89
2017-03-24T12:39:11.944Z,1032.83
2017-03-24T12:40:21.173Z,1032.82
2017-03-24T12:41:30.402Z,1032.85
2017-03-24T12:42:39.300Z,1032.75
2017-03-24T12:43:48.200Z,1032.8
2017-03-24T12:44:57.358Z,1032.83
2017-03-24T12:46:06.261Z,1032.8
2017-03-24T12:47:15.164Z,1032.82
2017-03-24T12:48:24.068Z,1032.82
2017-03-24T12:49:32.965Z,1032.79
2017-03-24T12:50:42.018Z,1032.84
2017-03-24T12:51:50.933Z,1032.81
2017-03-24T12:53:00.161Z,1032.8
2017-03-24T12:54:09.087Z,1032.83
2017-03-24T12:55:18.351Z,1032.81
2017-03-24T12:56:27.286Z,1032.8
2017-03-24T12:57:36.196Z,1032.81
2017-03-24T12:58:45.098Z,1032.83
2017-03-24T12:59:54.459Z,1032.83
2017-03-24T13:01:03.367Z,1032.8
2017-03-24T13:02:12.576Z,1032.8
2017-03-24T13:03:21.481Z,1032.75
2017-03-24T13:04:30.403Z,1032.74
2017-03-24T13:05:39.311Z,1032.78
2017-03-24T13:06:48.220Z,1032.79
2017-03-24T13:07:57.733Z,1032.81
2017-03-24T13:09:06.635Z,1032.84
2017-03-24T13:10:16.135Z,1032.81
2017-03-24T13:11:25.093Z,1032.84
2017-03-24T13:12:34.977Z,1032.86
2017-03-24T13:13:44.181Z,1032.84
2017-03-24T13:14:53.083Z,1032.95
2017-03-24T13:16:02.035Z,1032.92
2017-03-24T13:17:10.936Z,1032.89
2017-03-24T13:18:20.164Z,1032.95
2017-03-24T13:19:29.613Z,1032.94
2017-03-24T13:20:38.518Z,1032.89
2017-03-24T13:21:47.777Z,1032.92
2017-03-24T13:22:56.680Z,1032.95
2017-03-24T13:24:05.927Z,1032.89
2017-03-24T13:25:15.528Z,1032.85
2017-03-24T13:26:24.782Z,1032.83
2017-03-24T13:27:34.350Z,1032.76
2017-03-24T13:28:43.253Z,1032.76
2017-03-24T13:29:52.163Z,1032.7
2017-03-24T13:31:01.544Z,1032.61
2017-03-24T13:32:10.772Z,1032.61
2017-03-24T13:33:20.001Z,1032.73
2017-03-24T13:34:28.900Z,1032.75
2017-03-24T13:35:37.802Z,1032.76
2017-03-24T13:36:47.073Z,1032.85
2017-03-24T13:37:56.301Z,1032.81
2017-03-24T13:39:05.207Z,1032.81
2017-03-24T13:40:14.113Z,1032.7
2017-03-24T13:41:23.056Z,1032.67
2017-03-24T13:42:32.331Z,1032.67
2017-03-24T13:43:41.237Z,1032.66
2017-03-24T13:44:50.143Z,1032.62
2017-03-24T13:45:59.047Z,1032.54
2017-03-24T13:47:07.953Z,1032.61
2017-03-24T13:48:17.237Z,1032.63
2017-03-24T13:49:26.252Z,1032.64
2017-03-24T13:50:36.152Z,1032.74
2017-03-24T13:51:45.105Z,1033.27
2017-03-24T13:52:54.036Z,1033.23
2017-03-24T13:54:03.615Z,1032.77
2017-03-24T13:55:12.519Z,1032.9
2017-03-24T13:56:21.430Z,1032.93
2017-03-24T13:57:30.341Z,1032.87
2017-03-24T13:58:39.567Z,1032.9
2017-03-24T13:59:48.532Z,1032.79
2017-03-24T14:00:57.442Z,1032.96